Porteirinha, Brazil
Current Conditions -  °F | °C
As of 5:00 AM on Tuesday 21 Oct 2014 (Local Time) from SBMK Reporting Station
Thunderstorm Thunderstorm  
Wind Chill: 72°   Ceiling: 5000
Heat Index: 72°   Visibility: 6mi
Dew Point: 63°   Wind: 10mph
Humidity: 73%   Direction: 190°S
Pressure: 29.97"   Gusts: NA
Location:  15.74°S, 43.03°W
Report Text: SBMK 210700Z 19009KT 9000 -TSRA FEW045CB BKN050 BKN080 22/17 Q1015
Loading
Personal Weather Stations






























Interactive Weather Map
Tropical Storm Tracking
New forecast layout! Learn more

10-Day Weather Forecast

Advertisements
Track Severe Weather on mobile